sensor_id;sensor_type;location;lat;lon;timestamp;P1;durP1;ratioP1;P2;durP2;ratioP2
2602;SDS011;1311;47.966;7.958;2022-12-07T00:00:49;18.10;;;10.20;;
2602;SDS011;1311;47.966;7.958;2022-12-07T00:03:16;12.47;;;8.90;;
2602;SDS011;1311;47.966;7.958;2022-12-07T00:05:43;14.50;;;10.37;;
2602;SDS011;1311;47.966;7.958;2022-12-07T00:08:09;12.67;;;9.70;;
2602;SDS011;1311;47.966;7.958;2022-12-07T00:10:36;20.07;;;10.93;;
2602;SDS011;1311;47.966;7.958;2022-12-07T00:13:04;13.30;;;9.10;;
2602;SDS011;1311;47.966;7.958;2022-12-07T00:15:33;14.17;;;9.63;;
2602;SDS011;1311;47.966;7.958;2022-12-07T00:18:00;15.50;;;10.20;;
2602;SDS011;1311;47.966;7.958;2022-12-07T00:20:27;13.40;;;9.30;;
2602;SDS011;1311;47.966;7.958;2022-12-07T00:22:55;17.53;;;11.40;;
2602;SDS011;1311;47.966;7.958;2022-12-07T00:25:22;17.57;;;12.20;;
2602;SDS011;1311;47.966;7.958;2022-12-07T00:27:48;17.37;;;10.90;;
2602;SDS011;1311;47.966;7.958;2022-12-07T00:30:17;15.07;;;10.17;;
2602;SDS011;1311;47.966;7.958;2022-12-07T00:32:43;16.10;;;10.87;;
2602;SDS011;1311;47.966;7.958;2022-12-07T00:35:10;21.10;;;12.33;;
2602;SDS011;1311;47.966;7.958;2022-12-07T00:37:37;14.70;;;11.47;;
2602;SDS011;1311;47.966;7.958;2022-12-07T00:40:04;18.53;;;10.80;;
2602;SDS011;1311;47.966;7.958;2022-12-07T00:42:32;14.70;;;9.73;;
2602;SDS011;1311;47.966;7.958;2022-12-07T00:44:59;17.40;;;9.93;;
2602;SDS011;1311;47.966;7.958;2022-12-07T00:47:27;12.87;;;7.90;;
2602;SDS011;1311;47.966;7.958;2022-12-07T00:49:54;14.70;;;10.33;;
2602;SDS011;1311;47.966;7.958;2022-12-07T00:52:21;16.50;;;8.93;;
2602;SDS011;1311;47.966;7.958;2022-12-07T00:54:48;16.50;;;10.13;;
2602;SDS011;1311;47.966;7.958;2022-12-07T00:57:14;15.20;;;8.70;;
2602;SDS011;1311;47.966;7.958;2022-12-07T00:59:41;15.47;;;10.23;;
2602;SDS011;1311;47.966;7.958;2022-12-07T01:02:08;13.07;;;8.27;;
2602;SDS011;1311;47.966;7.958;2022-12-07T01:04:36;16.07;;;9.60;;
2602;SDS011;1311;47.966;7.958;2022-12-07T01:07:03;15.20;;;10.00;;
2602;SDS011;1311;47.966;7.958;2022-12-07T01:09:30;14.17;;;9.23;;
2602;SDS011;1311;47.966;7.958;2022-12-07T01:11:57;16.77;;;9.70;;
2602;SDS011;1311;47.966;7.958;2022-12-07T01:14:24;14.20;;;8.87;;
2602;SDS011;1311;47.966;7.958;2022-12-07T01:16:51;10.97;;;6.90;;
2602;SDS011;1311;47.966;7.958;2022-12-07T01:19:17;15.53;;;9.47;;
2602;SDS011;1311;47.966;7.958;2022-12-07T01:21:45;20.10;;;11.77;;
2602;SDS011;1311;47.966;7.958;2022-12-07T01:24:12;13.40;;;9.07;;
2602;SDS011;1311;47.966;7.958;2022-12-07T01:26:39;14.47;;;8.60;;
2602;SDS011;1311;47.966;7.958;2022-12-07T01:29:06;18.87;;;9.97;;
2602;SDS011;1311;47.966;7.958;2022-12-07T01:31:33;15.27;;;8.83;;
2602;SDS011;1311;47.966;7.958;2022-12-07T01:34:00;15.87;;;9.07;;
2602;SDS011;1311;47.966;7.958;2022-12-07T01:36:28;16.37;;;10.30;;
2602;SDS011;1311;47.966;7.958;2022-12-07T01:39:00;15.33;;;10.60;;
2602;SDS011;1311;47.966;7.958;2022-12-07T01:41:29;17.50;;;10.17;;
2602;SDS011;1311;47.966;7.958;2022-12-07T01:44:07;17.30;;;11.10;;
2602;SDS011;1311;47.966;7.958;2022-12-07T01:46:40;17.50;;;10.10;;
2602;SDS011;1311;47.966;7.958;2022-12-07T01:49:08;14.83;;;10.13;;
2602;SDS011;1311;47.966;7.958;2022-12-07T01:51:38;17.30;;;11.00;;
2602;SDS011;1311;47.966;7.958;2022-12-07T01:54:09;14.20;;;9.83;;
2602;SDS011;1311;47.966;7.958;2022-12-07T01:56:37;11.67;;;8.27;;
2602;SDS011;1311;47.966;7.958;2022-12-07T01:59:06;15.00;;;9.33;;
2602;SDS011;1311;47.966;7.958;2022-12-07T02:01:33;10.00;;;6.70;;
2602;SDS011;1311;47.966;7.958;2022-12-07T02:04:00;13.73;;;7.77;;
2602;SDS011;1311;47.966;7.958;2022-12-07T02:06:27;13.83;;;8.67;;
2602;SDS011;1311;47.966;7.958;2022-12-07T02:08:55;13.77;;;8.90;;
2602;SDS011;1311;47.966;7.958;2022-12-07T02:11:23;15.00;;;8.20;;
2602;SDS011;1311;47.966;7.958;2022-12-07T02:13:50;12.63;;;8.10;;
2602;SDS011;1311;47.966;7.958;2022-12-07T02:16:21;14.73;;;9.80;;
2602;SDS011;1311;47.966;7.958;2022-12-07T02:18:58;17.00;;;10.30;;
2602;SDS011;1311;47.966;7.958;2022-12-07T02:21:51;17.67;;;10.80;;
2602;SDS011;1311;47.966;7.958;2022-12-07T02:24:30;12.83;;;9.07;;
2602;SDS011;1311;47.966;7.958;2022-12-07T02:27:24;13.90;;;8.77;;
2602;SDS011;1311;47.966;7.958;2022-12-07T02:30:06;13.37;;;8.00;;
2602;SDS011;1311;47.966;7.958;2022-12-07T02:32:39;15.40;;;9.93;;
2602;SDS011;1311;47.966;7.958;2022-12-07T02:35:10;21.70;;;10.83;;
2602;SDS011;1311;47.966;7.958;2022-12-07T02:37:42;16.80;;;10.80;;
2602;SDS011;1311;47.966;7.958;2022-12-07T02:40:19;13.33;;;7.37;;
2602;SDS011;1311;47.966;7.958;2022-12-07T02:42:50;12.90;;;7.50;;
2602;SDS011;1311;47.966;7.958;2022-12-07T02:45:24;17.70;;;10.57;;
2602;SDS011;1311;47.966;7.958;2022-12-07T02:47:55;21.27;;;11.53;;
2602;SDS011;1311;47.966;7.958;2022-12-07T02:50:24;18.27;;;10.50;;
2602;SDS011;1311;47.966;7.958;2022-12-07T02:52:52;16.60;;;8.73;;
2602;SDS011;1311;47.966;7.958;2022-12-07T02:55:19;17.97;;;10.57;;
2602;SDS011;1311;47.966;7.958;2022-12-07T02:57:54;18.37;;;10.93;;
2602;SDS011;1311;47.966;7.958;2022-12-07T03:00:42;18.57;;;11.30;;
2602;SDS011;1311;47.966;7.958;2022-12-07T03:03:15;23.37;;;13.63;;
2602;SDS011;1311;47.966;7.958;2022-12-07T03:08:38;20.27;;;12.70;;
2602;SDS011;1311;47.966;7.958;2022-12-07T03:11:12;23.03;;;12.67;;
2602;SDS011;1311;47.966;7.958;2022-12-07T03:13:45;21.27;;;12.37;;
2602;SDS011;1311;47.966;7.958;2022-12-07T03:16:17;25.80;;;15.80;;
2602;SDS011;1311;47.966;7.958;2022-12-07T03:18:47;24.60;;;14.30;;
2602;SDS011;1311;47.966;7.958;2022-12-07T03:21:17;26.90;;;13.40;;
2602;SDS011;1311;47.966;7.958;2022-12-07T03:23:49;17.80;;;11.47;;
2602;SDS011;1311;47.966;7.958;2022-12-07T03:26:19;18.50;;;10.80;;
2602;SDS011;1311;47.966;7.958;2022-12-07T03:28:51;20.80;;;11.43;;
2602;SDS011;1311;47.966;7.958;2022-12-07T03:31:23;15.47;;;7.80;;
2602;SDS011;1311;47.966;7.958;2022-12-07T03:33:53;18.23;;;9.10;;
2602;SDS011;1311;47.966;7.958;2022-12-07T03:36:27;14.77;;;8.37;;
2602;SDS011;1311;47.966;7.958;2022-12-07T03:38:57;13.63;;;8.37;;
2602;SDS011;1311;47.966;7.958;2022-12-07T03:41:30;15.80;;;8.47;;
2602;SDS011;1311;47.966;7.958;2022-12-07T03:44:00;16.70;;;9.90;;
2602;SDS011;1311;47.966;7.958;2022-12-07T03:46:29;18.70;;;9.60;;
2602;SDS011;1311;47.966;7.958;2022-12-07T03:49:05;19.67;;;11.67;;
2602;SDS011;1311;47.966;7.958;2022-12-07T03:51:39;11.57;;;6.77;;
2602;SDS011;1311;47.966;7.958;2022-12-07T03:54:13;18.57;;;9.33;;
2602;SDS011;1311;47.966;7.958;2022-12-07T03:56:43;22.30;;;12.33;;
2602;SDS011;1311;47.966;7.958;2022-12-07T03:59:13;22.50;;;13.07;;
2602;SDS011;1311;47.966;7.958;2022-12-07T04:01:43;11.90;;;7.50;;
2602;SDS011;1311;47.966;7.958;2022-12-07T04:04:11;12.27;;;7.90;;
2602;SDS011;1311;47.966;7.958;2022-12-07T04:06:38;12.57;;;8.17;;
2602;SDS011;1311;47.966;7.958;2022-12-07T04:09:04;10.80;;;7.00;;
2602;SDS011;1311;47.966;7.958;2022-12-07T04:11:31;10.60;;;7.07;;
2602;SDS011;1311;47.966;7.958;2022-12-07T04:13:58;9.60;;;6.27;;
2602;SDS011;1311;47.966;7.958;2022-12-07T04:16:44;9.63;;;6.37;;
2602;SDS011;1311;47.966;7.958;2022-12-07T04:19:11;6.60;;;4.10;;
2602;SDS011;1311;47.966;7.958;2022-12-07T04:21:38;8.93;;;6.10;;
2602;SDS011;1311;47.966;7.958;2022-12-07T04:24:05;9.67;;;5.67;;
2602;SDS011;1311;47.966;7.958;2022-12-07T04:26:32;8.13;;;5.97;;
2602;SDS011;1311;47.966;7.958;2022-12-07T04:28:59;8.03;;;5.13;;
2602;SDS011;1311;47.966;7.958;2022-12-07T04:31:26;11.50;;;6.10;;
2602;SDS011;1311;47.966;7.958;2022-12-07T04:33:54;9.20;;;5.80;;
2602;SDS011;1311;47.966;7.958;2022-12-07T04:36:21;8.93;;;6.67;;
2602;SDS011;1311;47.966;7.958;2022-12-07T04:38:48;10.30;;;6.57;;
2602;SDS011;1311;47.966;7.958;2022-12-07T04:41:15;9.50;;;6.70;;
2602;SDS011;1311;47.966;7.958;2022-12-07T04:43:42;10.27;;;5.90;;
2602;SDS011;1311;47.966;7.958;2022-12-07T04:46:08;9.60;;;5.80;;
2602;SDS011;1311;47.966;7.958;2022-12-07T04:48:35;7.90;;;4.00;;
2602;SDS011;1311;47.966;7.958;2022-12-07T04:51:04;5.57;;;3.87;;
2602;SDS011;1311;47.966;7.958;2022-12-07T04:53:31;10.13;;;6.37;;
2602;SDS011;1311;47.966;7.958;2022-12-07T04:55:58;8.20;;;5.33;;
2602;SDS011;1311;47.966;7.958;2022-12-07T04:58:26;10.07;;;6.53;;
2602;SDS011;1311;47.966;7.958;2022-12-07T05:00:53;9.00;;;5.37;;
2602;SDS011;1311;47.966;7.958;2022-12-07T05:03:20;10.10;;;5.40;;
2602;SDS011;1311;47.966;7.958;2022-12-07T05:05:47;10.37;;;6.30;;
2602;SDS011;1311;47.966;7.958;2022-12-07T05:08:15;6.00;;;4.70;;
2602;SDS011;1311;47.966;7.958;2022-12-07T05:10:42;8.27;;;4.80;;
2602;SDS011;1311;47.966;7.958;2022-12-07T05:13:09;5.57;;;3.60;;
2602;SDS011;1311;47.966;7.958;2022-12-07T05:15:36;3.37;;;2.73;;
2602;SDS011;1311;47.966;7.958;2022-12-07T05:18:02;8.10;;;4.57;;
2602;SDS011;1311;47.966;7.958;2022-12-07T05:20:29;5.37;;;4.17;;
2602;SDS011;1311;47.966;7.958;2022-12-07T05:22:56;5.73;;;4.23;;
2602;SDS011;1311;47.966;7.958;2022-12-07T05:25:25;5.33;;;3.70;;
2602;SDS011;1311;47.966;7.958;2022-12-07T05:27:52;9.20;;;5.47;;
2602;SDS011;1311;47.966;7.958;2022-12-07T05:30:20;6.17;;;4.57;;
2602;SDS011;1311;47.966;7.958;2022-12-07T05:32:47;5.10;;;3.80;;
2602;SDS011;1311;47.966;7.958;2022-12-07T05:35:14;7.23;;;5.17;;
2602;SDS011;1311;47.966;7.958;2022-12-07T05:37:41;5.10;;;3.70;;
2602;SDS011;1311;47.966;7.958;2022-12-07T05:40:08;6.57;;;4.97;;
2602;SDS011;1311;47.966;7.958;2022-12-07T05:42:37;5.73;;;4.10;;
2602;SDS011;1311;47.966;7.958;2022-12-07T05:45:04;6.60;;;4.07;;
2602;SDS011;1311;47.966;7.958;2022-12-07T05:47:31;6.50;;;4.50;;
2602;SDS011;1311;47.966;7.958;2022-12-07T05:49:58;8.33;;;6.60;;
2602;SDS011;1311;47.966;7.958;2022-12-07T05:52:25;7.83;;;5.53;;
2602;SDS011;1311;47.966;7.958;2022-12-07T05:54:52;10.97;;;6.30;;
2602;SDS011;1311;47.966;7.958;2022-12-07T05:57:19;9.60;;;5.30;;
2602;SDS011;1311;47.966;7.958;2022-12-07T05:59:47;8.57;;;5.47;;
2602;SDS011;1311;47.966;7.958;2022-12-07T06:02:14;7.83;;;5.00;;
2602;SDS011;1311;47.966;7.958;2022-12-07T06:04:43;10.80;;;6.63;;
2602;SDS011;1311;47.966;7.958;2022-12-07T06:07:11;10.60;;;6.70;;
2602;SDS011;1311;47.966;7.958;2022-12-07T06:09:39;9.33;;;6.67;;
2602;SDS011;1311;47.966;7.958;2022-12-07T06:12:09;9.97;;;6.57;;
2602;SDS011;1311;47.966;7.958;2022-12-07T06:14:52;11.77;;;6.10;;
2602;SDS011;1311;47.966;7.958;2022-12-07T06:17:19;9.40;;;6.30;;
2602;SDS011;1311;47.966;7.958;2022-12-07T06:19:45;14.97;;;8.70;;
2602;SDS011;1311;47.966;7.958;2022-12-07T06:22:12;10.70;;;6.77;;
2602;SDS011;1311;47.966;7.958;2022-12-07T06:24:41;11.17;;;7.53;;
2602;SDS011;1311;47.966;7.958;2022-12-07T06:27:08;9.73;;;6.00;;
2602;SDS011;1311;47.966;7.958;2022-12-07T06:29:35;11.47;;;7.40;;
2602;SDS011;1311;47.966;7.958;2022-12-07T06:32:04;12.23;;;7.03;;
2602;SDS011;1311;47.966;7.958;2022-12-07T06:34:31;12.57;;;6.97;;
2602;SDS011;1311;47.966;7.958;2022-12-07T06:36:57;12.33;;;6.63;;
2602;SDS011;1311;47.966;7.958;2022-12-07T06:39:25;11.13;;;6.30;;
2602;SDS011;1311;47.966;7.958;2022-12-07T06:41:53;10.60;;;6.83;;
2602;SDS011;1311;47.966;7.958;2022-12-07T06:44:21;10.33;;;6.90;;
2602;SDS011;1311;47.966;7.958;2022-12-07T06:46:48;12.27;;;7.03;;
2602;SDS011;1311;47.966;7.958;2022-12-07T06:49:17;11.53;;;6.70;;
2602;SDS011;1311;47.966;7.958;2022-12-07T06:51:44;6.83;;;4.57;;
2602;SDS011;1311;47.966;7.958;2022-12-07T06:54:11;6.63;;;4.17;;
2602;SDS011;1311;47.966;7.958;2022-12-07T06:56:39;6.53;;;5.07;;
2602;SDS011;1311;47.966;7.958;2022-12-07T06:59:06;6.50;;;4.53;;
2602;SDS011;1311;47.966;7.958;2022-12-07T07:01:33;5.60;;;3.70;;
2602;SDS011;1311;47.966;7.958;2022-12-07T07:04:01;5.87;;;3.83;;
2602;SDS011;1311;47.966;7.958;2022-12-07T07:06:30;5.23;;;3.50;;
2602;SDS011;1311;47.966;7.958;2022-12-07T07:08:57;3.07;;;2.20;;
2602;SDS011;1311;47.966;7.958;2022-12-07T07:11:24;4.47;;;3.57;;
2602;SDS011;1311;47.966;7.958;2022-12-07T07:13:50;9.70;;;5.87;;
2602;SDS011;1311;47.966;7.958;2022-12-07T07:16:18;7.57;;;5.03;;
2602;SDS011;1311;47.966;7.958;2022-12-07T07:18:45;10.40;;;5.37;;
2602;SDS011;1311;47.966;7.958;2022-12-07T07:21:12;7.87;;;5.37;;
2602;SDS011;1311;47.966;7.958;2022-12-07T07:23:40;8.60;;;4.70;;
2602;SDS011;1311;47.966;7.958;2022-12-07T07:26:07;25.90;;;9.77;;
2602;SDS011;1311;47.966;7.958;2022-12-07T07:28:34;18.83;;;8.40;;
2602;SDS011;1311;47.966;7.958;2022-12-07T07:31:01;16.60;;;7.17;;
2602;SDS011;1311;47.966;7.958;2022-12-07T07:33:28;13.00;;;7.20;;
2602;SDS011;1311;47.966;7.958;2022-12-07T07:35:55;8.50;;;5.60;;
2602;SDS011;1311;47.966;7.958;2022-12-07T07:38:22;8.00;;;5.17;;
2602;SDS011;1311;47.966;7.958;2022-12-07T07:40:50;6.80;;;4.83;;
2602;SDS011;1311;47.966;7.958;2022-12-07T07:43:17;8.30;;;5.23;;
2602;SDS011;1311;47.966;7.958;2022-12-07T07:45:44;7.80;;;5.80;;
2602;SDS011;1311;47.966;7.958;2022-12-07T07:48:11;8.20;;;4.57;;
2602;SDS011;1311;47.966;7.958;2022-12-07T07:50:37;10.80;;;6.30;;
2602;SDS011;1311;47.966;7.958;2022-12-07T07:53:04;8.00;;;4.97;;
2602;SDS011;1311;47.966;7.958;2022-12-07T07:55:31;8.33;;;5.27;;
2602;SDS011;1311;47.966;7.958;2022-12-07T07:57:59;6.17;;;4.53;;
2602;SDS011;1311;47.966;7.958;2022-12-07T08:00:26;6.90;;;4.83;;
2602;SDS011;1311;47.966;7.958;2022-12-07T08:02:53;8.20;;;5.20;;
2602;SDS011;1311;47.966;7.958;2022-12-07T08:05:20;8.07;;;4.83;;
2602;SDS011;1311;47.966;7.958;2022-12-07T08:07:47;11.33;;;6.03;;
2602;SDS011;1311;47.966;7.958;2022-12-07T08:10:13;16.10;;;9.20;;
2602;SDS011;1311;47.966;7.958;2022-12-07T08:12:41;12.53;;;6.90;;
2602;SDS011;1311;47.966;7.958;2022-12-07T08:15:24;11.57;;;7.30;;
2602;SDS011;1311;47.966;7.958;2022-12-07T08:17:52;11.10;;;5.50;;
2602;SDS011;1311;47.966;7.958;2022-12-07T08:20:18;6.47;;;4.90;;
2602;SDS011;1311;47.966;7.958;2022-12-07T08:22:45;9.70;;;7.30;;
2602;SDS011;1311;47.966;7.958;2022-12-07T08:25:12;8.93;;;6.43;;
2602;SDS011;1311;47.966;7.958;2022-12-07T08:27:39;9.27;;;5.80;;
2602;SDS011;1311;47.966;7.958;2022-12-07T08:30:06;9.17;;;5.67;;
2602;SDS011;1311;47.966;7.958;2022-12-07T08:32:35;6.90;;;4.13;;
2602;SDS011;1311;47.966;7.958;2022-12-07T08:35:02;5.70;;;5.20;;
2602;SDS011;1311;47.966;7.958;2022-12-07T08:37:29;9.40;;;5.50;;
2602;SDS011;1311;47.966;7.958;2022-12-07T08:39:55;8.03;;;4.97;;
2602;SDS011;1311;47.966;7.958;2022-12-07T08:42:23;8.33;;;5.20;;
2602;SDS011;1311;47.966;7.958;2022-12-07T08:44:54;8.53;;;4.83;;
2602;SDS011;1311;47.966;7.958;2022-12-07T08:47:21;7.03;;;4.80;;
2602;SDS011;1311;47.966;7.958;2022-12-07T08:49:50;8.20;;;5.20;;
2602;SDS011;1311;47.966;7.958;2022-12-07T08:52:19;9.17;;;5.73;;
2602;SDS011;1311;47.966;7.958;2022-12-07T08:54:46;5.00;;;3.30;;
2602;SDS011;1311;47.966;7.958;2022-12-07T08:57:13;3.30;;;2.70;;
2602;SDS011;1311;47.966;7.958;2022-12-07T08:59:40;5.60;;;4.07;;
2602;SDS011;1311;47.966;7.958;2022-12-07T09:02:07;12.30;;;7.07;;
2602;SDS011;1311;47.966;7.958;2022-12-07T09:04:34;10.60;;;6.47;;
2602;SDS011;1311;47.966;7.958;2022-12-07T09:07:02;20.93;;;12.47;;
2602;SDS011;1311;47.966;7.958;2022-12-07T09:09:29;6.47;;;5.10;;
2602;SDS011;1311;47.966;7.958;2022-12-07T09:11:56;5.43;;;4.00;;
2602;SDS011;1311;47.966;7.958;2022-12-07T09:14:22;5.03;;;4.00;;
2602;SDS011;1311;47.966;7.958;2022-12-07T09:16:49;4.20;;;3.07;;
2602;SDS011;1311;47.966;7.958;2022-12-07T09:19:16;3.83;;;2.60;;
2602;SDS011;1311;47.966;7.958;2022-12-07T09:21:43;3.80;;;3.30;;
2602;SDS011;1311;47.966;7.958;2022-12-07T09:24:12;6.40;;;4.33;;
2602;SDS011;1311;47.966;7.958;2022-12-07T09:26:39;4.60;;;3.47;;
2602;SDS011;1311;47.966;7.958;2022-12-07T09:29:06;4.97;;;3.87;;
2602;SDS011;1311;47.966;7.958;2022-12-07T09:31:35;4.80;;;3.93;;
2602;SDS011;1311;47.966;7.958;2022-12-07T09:34:02;9.03;;;3.70;;
2602;SDS011;1311;47.966;7.958;2022-12-07T09:36:29;4.27;;;2.87;;
2602;SDS011;1311;47.966;7.958;2022-12-07T09:38:56;3.47;;;2.90;;
2602;SDS011;1311;47.966;7.958;2022-12-07T09:41:25;3.07;;;2.77;;
2602;SDS011;1311;47.966;7.958;2022-12-07T09:43:55;3.50;;;2.67;;
2602;SDS011;1311;47.966;7.958;2022-12-07T09:46:29;2.53;;;2.33;;
2602;SDS011;1311;47.966;7.958;2022-12-07T09:49:01;2.83;;;2.50;;
2602;SDS011;1311;47.966;7.958;2022-12-07T09:51:28;3.60;;;2.47;;
2602;SDS011;1311;47.966;7.958;2022-12-07T09:53:56;2.50;;;2.30;;
2602;SDS011;1311;47.966;7.958;2022-12-07T09:56:28;1.83;;;1.70;;
2602;SDS011;1311;47.966;7.958;2022-12-07T09:58:58;2.53;;;2.13;;
2602;SDS011;1311;47.966;7.958;2022-12-07T10:01:27;2.80;;;2.30;;
2602;SDS011;1311;47.966;7.958;2022-12-07T10:03:59;2.00;;;1.80;;
2602;SDS011;1311;47.966;7.958;2022-12-07T10:06:32;2.33;;;2.13;;
2602;SDS011;1311;47.966;7.958;2022-12-07T10:08:59;3.07;;;2.60;;
2602;SDS011;1311;47.966;7.958;2022-12-07T10:11:27;2.30;;;1.90;;
2602;SDS011;1311;47.966;7.958;2022-12-07T10:13:54;2.50;;;2.20;;
2602;SDS011;1311;47.966;7.958;2022-12-07T10:16:31;1.40;;;1.30;;
2602;SDS011;1311;47.966;7.958;2022-12-07T10:19:17;2.23;;;2.03;;
2602;SDS011;1311;47.966;7.958;2022-12-07T10:22:07;2.03;;;1.83;;
2602;SDS011;1311;47.966;7.958;2022-12-07T10:24:37;1.53;;;1.40;;
2602;SDS011;1311;47.966;7.958;2022-12-07T10:27:13;1.60;;;1.50;;
2602;SDS011;1311;47.966;7.958;2022-12-07T10:29:47;1.70;;;1.60;;
2602;SDS011;1311;47.966;7.958;2022-12-07T10:32:28;1.90;;;1.80;;
2602;SDS011;1311;47.966;7.958;2022-12-07T10:35:18;2.20;;;1.93;;
2602;SDS011;1311;47.966;7.958;2022-12-07T10:37:50;2.27;;;2.07;;
2602;SDS011;1311;47.966;7.958;2022-12-07T10:40:24;3.00;;;2.20;;
2602;SDS011;1311;47.966;7.958;2022-12-07T10:43:01;1.87;;;1.77;;
2602;SDS011;1311;47.966;7.958;2022-12-07T10:45:29;2.23;;;2.03;;
2602;SDS011;1311;47.966;7.958;2022-12-07T10:47:58;2.00;;;1.80;;
2602;SDS011;1311;47.966;7.958;2022-12-07T10:53:39;2.23;;;2.03;;
2602;SDS011;1311;47.966;7.958;2022-12-07T10:56:34;2.70;;;2.13;;
2602;SDS011;1311;47.966;7.958;2022-12-07T10:59:30;1.90;;;1.63;;
2602;SDS011;1311;47.966;7.958;2022-12-07T11:02:11;1.63;;;1.53;;
2602;SDS011;1311;47.966;7.958;2022-12-07T11:04:55;2.57;;;2.03;;
2602;SDS011;1311;47.966;7.958;2022-12-07T11:07:43;3.13;;;1.67;;
2602;SDS011;1311;47.966;7.958;2022-12-07T11:10:18;1.70;;;1.57;;
2602;SDS011;1311;47.966;7.958;2022-12-07T11:16:06;2.10;;;1.67;;
2602;SDS011;1311;47.966;7.958;2022-12-07T11:18:59;2.37;;;2.00;;
2602;SDS011;1311;47.966;7.958;2022-12-07T11:21:48;1.77;;;1.50;;
2602;SDS011;1311;47.966;7.958;2022-12-07T11:24:23;2.93;;;2.60;;
2602;SDS011;1311;47.966;7.958;2022-12-07T11:27:00;1.80;;;1.70;;
2602;SDS011;1311;47.966;7.958;2022-12-07T11:29:46;2.67;;;2.47;;
2602;SDS011;1311;47.966;7.958;2022-12-07T11:32:38;3.13;;;2.40;;
2602;SDS011;1311;47.966;7.958;2022-12-07T11:35:15;1.80;;;1.70;;
2602;SDS011;1311;47.966;7.958;2022-12-07T11:37:48;3.20;;;2.00;;
2602;SDS011;1311;47.966;7.958;2022-12-07T11:40:24;2.33;;;2.00;;
2602;SDS011;1311;47.966;7.958;2022-12-07T11:42:55;2.30;;;2.10;;
2602;SDS011;1311;47.966;7.958;2022-12-07T11:45:26;2.93;;;2.40;;
2602;SDS011;1311;47.966;7.958;2022-12-07T11:47:57;2.03;;;1.67;;
2602;SDS011;1311;47.966;7.958;2022-12-07T11:50:31;2.60;;;2.40;;
2602;SDS011;1311;47.966;7.958;2022-12-07T11:53:03;2.57;;;1.93;;
2602;SDS011;1311;47.966;7.958;2022-12-07T11:55:40;4.13;;;2.60;;
2602;SDS011;1311;47.966;7.958;2022-12-07T11:58:15;2.20;;;2.00;;
2602;SDS011;1311;47.966;7.958;2022-12-07T12:00:49;4.27;;;1.50;;
2602;SDS011;1311;47.966;7.958;2022-12-07T12:03:24;3.00;;;2.70;;
2602;SDS011;1311;47.966;7.958;2022-12-07T12:05:56;2.13;;;1.93;;
2602;SDS011;1311;47.966;7.958;2022-12-07T12:08:25;2.10;;;1.90;;
2602;SDS011;1311;47.966;7.958;2022-12-07T12:10:58;2.30;;;2.10;;
2602;SDS011;1311;47.966;7.958;2022-12-07T12:16:52;2.20;;;2.00;;
2602;SDS011;1311;47.966;7.958;2022-12-07T12:19:36;3.63;;;2.40;;
2602;SDS011;1311;47.966;7.958;2022-12-07T12:22:24;1.63;;;1.53;;
2602;SDS011;1311;47.966;7.958;2022-12-07T12:24:58;2.33;;;1.87;;
2602;SDS011;1311;47.966;7.958;2022-12-07T12:27:26;2.50;;;2.07;;
2602;SDS011;1311;47.966;7.958;2022-12-07T12:29:57;2.63;;;1.47;;
2602;SDS011;1311;47.966;7.958;2022-12-07T12:32:30;3.27;;;2.40;;
2602;SDS011;1311;47.966;7.958;2022-12-07T12:35:29;1.77;;;1.60;;
2602;SDS011;1311;47.966;7.958;2022-12-07T12:40:59;2.00;;;1.70;;
2602;SDS011;1311;47.966;7.958;2022-12-07T12:43:48;2.27;;;1.90;;
2602;SDS011;1311;47.966;7.958;2022-12-07T12:58:33;1.80;;;1.47;;
2602;SDS011;1311;47.966;7.958;2022-12-07T13:04:12;3.87;;;2.30;;
2602;SDS011;1311;47.966;7.958;2022-12-07T13:06:44;2.23;;;2.03;;
2602;SDS011;1311;47.966;7.958;2022-12-07T13:09:18;3.07;;;1.90;;
2602;SDS011;1311;47.966;7.958;2022-12-07T13:11:48;2.20;;;1.90;;
2602;SDS011;1311;47.966;7.958;2022-12-07T13:14:37;1.80;;;1.70;;
2602;SDS011;1311;47.966;7.958;2022-12-07T13:20:45;2.67;;;2.10;;
2602;SDS011;1311;47.966;7.958;2022-12-07T13:23:20;1.97;;;1.83;;
2602;SDS011;1311;47.966;7.958;2022-12-07T13:25:59;3.40;;;2.27;;
2602;SDS011;1311;47.966;7.958;2022-12-07T13:28:32;2.67;;;2.20;;
2602;SDS011;1311;47.966;7.958;2022-12-07T13:31:14;2.63;;;2.43;;
2602;SDS011;1311;47.966;7.958;2022-12-07T13:33:50;3.27;;;2.43;;
2602;SDS011;1311;47.966;7.958;2022-12-07T13:36:19;3.10;;;2.53;;
2602;SDS011;1311;47.966;7.958;2022-12-07T13:38:49;2.73;;;2.37;;
2602;SDS011;1311;47.966;7.958;2022-12-07T13:41:21;3.40;;;3.10;;
2602;SDS011;1311;47.966;7.958;2022-12-07T13:43:49;2.93;;;2.53;;
2602;SDS011;1311;47.966;7.958;2022-12-07T13:46:26;3.03;;;2.40;;
2602;SDS011;1311;47.966;7.958;2022-12-07T13:49:02;3.30;;;2.77;;
2602;SDS011;1311;47.966;7.958;2022-12-07T13:51:29;3.03;;;2.40;;
2602;SDS011;1311;47.966;7.958;2022-12-07T13:54:08;2.87;;;2.57;;
2602;SDS011;1311;47.966;7.958;2022-12-07T13:56:38;3.80;;;2.77;;
2602;SDS011;1311;47.966;7.958;2022-12-07T13:59:05;2.93;;;2.40;;
2602;SDS011;1311;47.966;7.958;2022-12-07T14:01:39;3.33;;;2.80;;
2602;SDS011;1311;47.966;7.958;2022-12-07T14:04:17;4.53;;;3.00;;
2602;SDS011;1311;47.966;7.958;2022-12-07T14:06:58;3.30;;;2.47;;
2602;SDS011;1311;47.966;7.958;2022-12-07T14:09:27;3.43;;;2.50;;
2602;SDS011;1311;47.966;7.958;2022-12-07T14:11:56;2.70;;;2.10;;
2602;SDS011;1311;47.966;7.958;2022-12-07T14:14:25;2.93;;;1.70;;
2602;SDS011;1311;47.966;7.958;2022-12-07T14:16:56;2.73;;;2.13;;
2602;SDS011;1311;47.966;7.958;2022-12-07T14:19:43;4.97;;;2.30;;
2602;SDS011;1311;47.966;7.958;2022-12-07T14:22:23;1.30;;;1.20;;
2602;SDS011;1311;47.966;7.958;2022-12-07T14:25:09;1.87;;;1.60;;
2602;SDS011;1311;47.966;7.958;2022-12-07T14:27:48;1.67;;;1.30;;
2602;SDS011;1311;47.966;7.958;2022-12-07T14:30:23;2.17;;;1.93;;
2602;SDS011;1311;47.966;7.958;2022-12-07T14:32:52;1.60;;;1.47;;
2602;SDS011;1311;47.966;7.958;2022-12-07T14:35:21;3.07;;;2.20;;
2602;SDS011;1311;47.966;7.958;2022-12-07T14:37:48;2.60;;;2.13;;
2602;SDS011;1311;47.966;7.958;2022-12-07T14:40:16;2.80;;;2.33;;
2602;SDS011;1311;47.966;7.958;2022-12-07T14:42:45;2.60;;;2.40;;
2602;SDS011;1311;47.966;7.958;2022-12-07T14:45:17;2.30;;;2.00;;
2602;SDS011;1311;47.966;7.958;2022-12-07T14:47:45;4.10;;;3.07;;
2602;SDS011;1311;47.966;7.958;2022-12-07T14:50:13;4.33;;;2.53;;
2602;SDS011;1311;47.966;7.958;2022-12-07T14:52:41;2.23;;;2.03;;
2602;SDS011;1311;47.966;7.958;2022-12-07T14:55:13;4.37;;;3.00;;
2602;SDS011;1311;47.966;7.958;2022-12-07T14:57:43;4.30;;;2.90;;
2602;SDS011;1311;47.966;7.958;2022-12-07T15:00:15;3.43;;;3.13;;
2602;SDS011;1311;47.966;7.958;2022-12-07T15:02:43;3.80;;;2.60;;
2602;SDS011;1311;47.966;7.958;2022-12-07T15:05:11;4.67;;;4.20;;
2602;SDS011;1311;47.966;7.958;2022-12-07T15:07:38;4.00;;;3.20;;
2602;SDS011;1311;47.966;7.958;2022-12-07T15:10:06;3.73;;;3.30;;
2602;SDS011;1311;47.966;7.958;2022-12-07T15:12:39;3.87;;;3.10;;
2602;SDS011;1311;47.966;7.958;2022-12-07T15:15:06;3.47;;;2.73;;
2602;SDS011;1311;47.966;7.958;2022-12-07T15:17:34;2.70;;;2.47;;
2602;SDS011;1311;47.966;7.958;2022-12-07T15:20:02;2.70;;;2.33;;
2602;SDS011;1311;47.966;7.958;2022-12-07T15:22:30;2.90;;;2.20;;
2602;SDS011;1311;47.966;7.958;2022-12-07T15:24:57;3.60;;;2.47;;
2602;SDS011;1311;47.966;7.958;2022-12-07T15:27:24;4.20;;;2.77;;
2602;SDS011;1311;47.966;7.958;2022-12-07T15:29:51;6.87;;;4.20;;
2602;SDS011;1311;47.966;7.958;2022-12-07T15:32:18;3.67;;;2.70;;
2602;SDS011;1311;47.966;7.958;2022-12-07T15:34:46;3.67;;;2.97;;
2602;SDS011;1311;47.966;7.958;2022-12-07T15:37:14;6.60;;;3.77;;
2602;SDS011;1311;47.966;7.958;2022-12-07T15:39:41;6.00;;;3.40;;
2602;SDS011;1311;47.966;7.958;2022-12-07T15:42:09;4.40;;;3.57;;
2602;SDS011;1311;47.966;7.958;2022-12-07T15:44:36;3.23;;;2.10;;
2602;SDS011;1311;47.966;7.958;2022-12-07T15:47:20;2.40;;;1.83;;
2602;SDS011;1311;47.966;7.958;2022-12-07T15:49:48;4.00;;;2.83;;
2602;SDS011;1311;47.966;7.958;2022-12-07T15:52:15;4.03;;;2.57;;
2602;SDS011;1311;47.966;7.958;2022-12-07T15:54:42;3.47;;;2.03;;
2602;SDS011;1311;47.966;7.958;2022-12-07T15:57:09;3.07;;;2.43;;
2602;SDS011;1311;47.966;7.958;2022-12-07T15:59:35;3.17;;;2.80;;
2602;SDS011;1311;47.966;7.958;2022-12-07T16:02:02;3.10;;;2.80;;